Aérodrome :
LOGIN :

S'inscrire | Disclaimer

   EN    FR    IT 

 










Légende :    VFR   VFR Marginal   IFR   IFR Intensif   IFR Très Intensif
Visi : 
Plafond : 
>= 8 km
>= 3000ft
5 à 8 km
1000 à 3000 ft
1500m à 5 km
500 à 1000 ft
800 à 1500m
200 à 500 ft
< 800m
< 200 ft
Symboles :   Orages  Brouillard  Fortes neiges  Fortes précipitations  Vent > 20 kt
SIGMETs :   Divers  Orages  Givrage  Turbulence  Onde Orograph.  Cendres Volcan.






- Altitude de l'aérodrome : 171 ft
- Code IATA : EGC


LFBE - Bergerac

DERNIER METAR :
  • 210200Z AUTO VRB02KT CAVOK 09/08 Q1016 TEMPO 3000 BR BKN005

METARs EXPIRÉS :
  • 210130Z AUTO 21003KT CAVOK 10/09 Q1015 TEMPO 3000 BR BKN005
  • 210100Z AUTO 21004KT 9999 SCT017 OVC190 11/09 Q1015 TEMPO 3000 BR BKN005
  • 210030Z AUTO 23004KT 9999 BKN014 BKN022 OVC210 11/10 Q1014 TEMPO 3000 BR BKN005
  • 210000Z AUTO 21003KT 180V250 9999 OVC011 11/10 Q1014 TEMPO 3000 BR BKN005
  • 202330Z AUTO 25004KT 9999 BKN010 11/10 Q1014 TEMPO 3000 BR

TAF TAF LFBE
Valide du 21 à 00h jusqu'au 22 à 00h UTC


202300Z 2100/2124 19004KT 9999 SCT015
PROB40 2100/2106 3000 BR BKN005
BECMG 2106/2108 2000 BR BKN003
PROB30 2108/2109 0800 FG VV///
BECMG 2110/2112 SCT020



MET'MAP, la Météo Aéronautique d'un coup d'oeil ! - Copyright ORBIFLY Décembre 2007 - Disclaimer

ORBIFLY MET'MAP TEAM :

Programmation & Développement : Alexandra Zaïnal
Conception & Développement : Baudouin d'Aumeries
Co-Programmation & Développement : Marc-Olivier Méhu
Soutien technique & logistique : Manuel Goepfert

Contact : metmap@orbifly.com




SOURCES & CREDITS :

   NOAA